Time;durP1;ratioP1;P1;durP2;ratioP2;P2;SDS_P1;SDS_P2;PMS_P1;PMS_P2;Temp;Humidity;BMP_temperature;BMP_pressure;BME280_temperature;BME280_humidity;BME280_pressure;Samples;Min_cycle;Max_cycle;Signal;HPM_P1;HPM_P2
2022/03/14 00:00:17;;;;;;;6.28;2.30;;;;;;;10.34;67.11;101447.91;5063997;28;20448;-76
2022/03/14 00:02:43;;;;;;;;;;;;;;;10.38;66.17;101444.06;5064603;28;20115;-76
2022/03/14 00:05:09;;;;;;;7.93;2.45;;;;;;;10.31;66.82;101448.97;5068244;28;20098;-76
2022/03/14 00:07:37;;;;;;;4.43;1.88;;;;;;;10.30;66.96;101445.38;5063684;28;20028;-77
2022/03/14 00:10:04;;;;;;;5.07;2.40;;;;;;;10.29;67.13;101453.53;5065687;28;20053;-76
2022/03/14 00:12:31;;;;;;;9.32;2.60;;;;;;;10.28;66.93;101457.22;5062140;28;20036;-76
2022/03/14 00:14:56;;;;;;;7.80;2.60;;;;;;;10.27;67.00;101464.38;5070864;28;20032;-76
2022/03/14 00:17:23;;;;;;;6.68;2.55;;;;;;;10.26;67.11;101459.09;5071972;28;20103;-76
2022/03/14 00:19:49;;;;;;;7.05;2.42;;;;;;;10.25;67.59;101457.38;5070212;28;20059;-76
2022/03/14 00:22:17;;;;;;;6.60;2.33;;;;;;;10.23;67.44;101464.69;5070892;28;20456;-76
2022/03/14 00:24:43;;;;;;;7.68;2.80;;;;;;;10.23;67.20;101470.03;5069853;28;20151;-76
2022/03/14 00:27:08;;;;;;;7.18;2.70;;;;;;;10.20;67.61;101478.31;5067962;28;20101;-76
2022/03/14 00:29:33;;;;;;;11.70;3.05;;;;;;;10.21;67.55;101480.88;5071213;28;20028;-76
2022/03/14 00:32:00;;;;;;;6.80;2.60;;;;;;;10.19;67.53;101482.81;5044825;28;20032;-76
2022/03/14 00:34:26;;;;;;;7.97;3.25;;;;;;;10.18;67.95;101483.78;5049664;28;20032;-76
2022/03/14 00:36:51;;;;;;;8.75;2.95;;;;;;;10.15;67.88;101487.50;5050857;28;20085;-76
2022/03/14 00:39:18;;;;;;;8.85;3.00;;;;;;;10.16;67.98;101488.34;5053719;28;20048;-76
2022/03/14 00:41:43;;;;;;;5.43;2.33;;;;;;;10.14;67.91;101495.66;5051648;28;20033;-76
2022/03/14 00:44:15;;;;;;;7.55;2.47;;;;;;;10.14;68.22;101496.50;5050935;28;20089;-77
2022/03/14 00:46:42;;;;;;;9.40;2.60;;;;;;;10.12;68.31;101503.81;5049584;28;20075;-76
2022/03/14 00:49:07;;;;;;;8.68;2.60;;;;;;;10.13;68.37;101502.84;5050415;28;20036;-76
2022/03/14 00:51:34;;;;;;;7.28;2.58;;;;;;;10.13;68.89;101513.59;5050281;28;20031;-76
2022/03/14 00:54:00;;;;;;;10.65;3.30;;;;;;;10.12;70.19;101508.31;5050394;28;20442;-76
2022/03/14 00:56:27;;;;;;;8.73;3.22;;;;;;;10.09;70.35;101504.00;5051326;28;20028;-76
2022/03/14 00:58:52;;;;;;;9.30;3.17;;;;;;;10.07;70.54;101516.66;5049095;28;20068;-76
2022/03/14 01:01:17;;;;;;;7.40;2.72;;;;;;;10.05;71.12;101523.09;5057309;28;20054;-76
2022/03/14 01:03:43;;;;;;;10.00;2.97;;;;;;;10.02;71.43;101518.75;5054579;28;20459;-76
2022/03/14 01:06:08;;;;;;;10.40;3.35;;;;;;;9.99;71.45;101529.69;5064316;28;20024;-77
2022/03/14 01:08:33;;;;;;;11.63;3.40;;;;;;;9.98;70.80;101522.56;5068546;28;20028;-76
2022/03/14 01:10:59;;;;;;;9.25;3.33;;;;;;;9.97;71.69;101534.25;5064281;28;20047;-76
2022/03/14 01:13:25;;;;;;;8.38;3.10;;;;;;;9.96;71.18;101540.59;5069368;28;20024;-76
2022/03/14 01:15:51;;;;;;;9.43;3.03;;;;;;;9.96;71.18;101535.25;5067751;28;20040;-76
2022/03/14 01:18:16;;;;;;;8.77;2.90;;;;;;;9.95;71.03;101533.50;5070101;28;20036;-76
2022/03/14 01:20:42;;;;;;;11.88;3.15;;;;;;;9.95;71.31;101538.88;5069233;28;20452;-76
2022/03/14 01:23:07;;;;;;;10.50;3.10;;;;;;;9.92;71.46;101537.22;5068806;28;20020;-76
2022/03/14 01:25:32;;;;;;;11.88;3.35;;;;;;;9.92;71.36;101547.13;5069950;28;20095;-76
2022/03/14 01:27:58;;;;;;;9.02;3.13;;;;;;;9.91;71.72;101550.75;5067901;28;20093;-76
2022/03/14 01:30:24;;;;;;;9.20;3.30;;;;;;;9.89;71.58;101553.53;5068640;28;20085;-76
2022/03/14 01:32:49;;;;;;;9.73;3.50;;;;;;;9.87;71.51;101550.06;5067013;28;20059;-76
2022/03/14 01:35:17;;;;;;;8.10;3.13;;;;;;;9.88;71.64;101556.28;5069236;28;20060;-77
2022/03/14 01:37:43;;;;;;;11.00;3.85;;;;;;;9.87;71.65;101557.25;5068453;28;20024;-76
2022/03/14 01:40:09;;;;;;;8.57;3.42;;;;;;;9.85;71.92;101553.81;5068936;28;20498;-76
2022/03/14 01:42:38;;;;;;;11.13;3.58;;;;;;;9.85;71.90;101559.16;5067949;28;20093;-76
2022/03/14 01:45:05;;;;;;;11.45;3.75;;;;;;;9.84;71.65;101554.75;5069414;28;20093;-76
2022/03/14 01:47:30;;;;;;;13.00;3.95;;;;;;;9.83;72.09;101558.41;5070273;28;20028;-77
2022/03/14 01:49:56;;;;;;;14.43;3.92;;;;;;;9.82;71.78;101554.84;5058359;28;20412;-77
2022/03/14 01:52:21;;;;;;;10.02;3.55;;;;;;;9.83;72.08;101558.41;5067960;28;20028;-77
2022/03/14 01:54:47;;;;;;;12.05;3.58;;;;;;;9.82;71.92;101570.09;5066692;28;20051;-76
2022/03/14 01:57:16;;;;;;;11.48;3.78;;;;;;;9.80;72.03;101568.34;5068057;28;20024;-76
2022/03/14 01:59:41;;;;;;;11.43;4.10;;;;;;;9.79;72.08;101569.31;5067533;28;20032;-76
2022/03/14 02:02:06;;;;;;;12.55;3.45;;;;;;;9.79;71.99;101580.06;5068334;28;20039;-80
2022/03/14 02:04:32;;;;;;;10.07;3.00;;;;;;;9.80;72.28;101583.59;5068721;28;20399;-80
2022/03/14 02:06:58;;;;;;;12.30;3.55;;;;;;;9.80;72.24;101580.91;5069046;28;20037;-80
2022/03/14 02:09:24;;;;;;;11.90;3.60;;;;;;;9.80;71.96;101575.56;5065489;28;20070;-79
2022/03/14 02:11:55;;;;;;;11.40;3.90;;;;;;;9.79;71.95;101577.38;5067502;28;20052;-80
2022/03/14 02:14:20;;;;;;;11.07;3.63;;;;;;;9.78;72.23;101580.13;5067991;28;20036;-80
2022/03/14 02:16:46;;;;;;;11.20;3.47;;;;;;;9.79;72.40;101592.59;5068917;28;20430;-80
2022/03/14 02:19:11;;;;;;;12.20;4.05;;;;;;;9.78;72.32;101591.75;5068323;28;20036;-80
2022/03/14 02:21:38;;;;;;;9.93;3.58;;;;;;;9.78;72.51;101605.16;5068411;28;20844;-80
2022/03/14 02:24:04;;;;;;;11.77;3.75;;;;;;;9.77;72.37;101606.13;5065757;28;20103;-80
2022/03/14 02:26:29;;;;;;;12.20;4.07;;;;;;;9.75;72.20;101602.66;5068587;28;20093;-80
2022/03/14 02:28:54;;;;;;;15.30;4.25;;;;;;;9.75;72.73;101607.16;5054884;28;20032;-79
2022/03/14 02:31:19;;;;;;;13.98;4.20;;;;;;;9.73;72.84;101604.56;5068195;28;20035;-80
2022/03/14 02:33:45;;;;;;;11.10;3.83;;;;;;;9.73;72.87;101607.25;5068575;28;20043;-80
2022/03/14 02:36:10;;;;;;;14.45;4.18;;;;;;;9.72;72.90;101594.81;5067632;28;20107;-80
2022/03/14 02:38:35;;;;;;;9.90;3.63;;;;;;;9.72;72.76;101608.22;5069234;28;20391;-80
2022/03/14 02:41:01;;;;;;;10.93;3.85;;;;;;;9.70;72.98;101604.75;5067674;28;20475;-80
2022/03/14 02:43:26;;;;;;;10.88;4.00;;;;;;;9.69;73.13;101605.69;5066752;28;20031;-80
2022/03/14 02:45:54;;;;;;;12.25;4.15;;;;;;;9.70;73.10;101609.25;5066650;28;20148;-80
2022/03/14 02:48:19;;;;;;;11.48;3.55;;;;;;;9.68;73.14;101608.47;5068269;28;20421;-80
2022/03/14 02:50:48;;;;;;;11.48;3.63;;;;;;;9.68;72.92;101613.81;5066340;28;20048;-80
2022/03/14 02:53:14;;;;;;;11.93;4.07;;;;;;;9.67;73.00;101620.16;5067897;28;20039;-80
2022/03/14 02:55:40;;;;;;;12.82;3.83;;;;;;;9.64;72.86;101629.25;5067257;28;20408;-80
2022/03/14 02:58:06;;;;;;;11.68;3.60;;;;;;;9.62;72.85;101633.84;5066638;28;20040;-80
2022/03/14 03:00:32;;;;;;;11.32;3.60;;;;;;;9.60;73.11;101638.44;5066308;28;20043;-80
2022/03/14 03:02:57;;;;;;;11.30;3.50;;;;;;;9.58;73.05;101643.03;5049516;28;20028;-80
2022/03/14 03:05:22;;;;;;;7.82;3.28;;;;;;;9.57;73.13;101652.88;5067002;28;20025;-80
2022/03/14 03:07:48;;;;;;;9.40;3.45;;;;;;;9.57;73.20;101646.66;5062824;28;20060;-80
2022/03/14 03:10:16;;;;;;;9.60;3.28;;;;;;;9.56;72.98;101656.53;5067609;28;20033;-80
2022/03/14 03:12:42;;;;;;;15.02;4.53;;;;;;;9.56;73.55;101661.00;5066851;28;20036;-80
2022/03/14 03:15:08;;;;;;;10.38;3.67;;;;;;;9.56;73.30;101666.38;5067873;28;20033;-80
2022/03/14 03:17:34;;;;;;;11.65;4.05;;;;;;;9.54;73.34;101670.97;5067599;28;20275;-80
2022/03/14 03:19:59;;;;;;;8.60;3.47;;;;;;;9.55;73.80;101678.94;5067403;28;20062;-80
2022/03/14 03:22:27;;;;;;;11.63;3.70;;;;;;;9.53;74.99;101683.53;5065882;28;20044;-80
2022/03/14 03:24:53;;;;;;;13.20;4.25;;;;;;;9.50;75.31;101686.38;5066698;28;20028;-80
2022/03/14 03:27:19;;;;;;;13.93;4.07;;;;;;;9.49;76.22;101691.81;5064805;28;20434;-80
2022/03/14 03:29:44;;;;;;;12.10;3.95;;;;;;;9.45;75.96;101697.34;5067321;28;20478;-80
2022/03/14 03:32:09;;;;;;;11.65;3.90;;;;;;;9.42;76.78;101713.63;5067962;28;20028;-80
2022/03/14 03:34:38;;;;;;;11.00;3.60;;;;;;;9.39;76.32;101713.81;5065145;28;20040;-80
2022/03/14 03:37:03;;;;;;;14.65;4.88;;;;;;;9.36;76.19;101724.72;5066101;28;20111;-80
2022/03/14 03:39:30;;;;;;;11.55;4.47;;;;;;;9.32;75.92;101725.81;5068954;28;20489;-80
2022/03/14 03:41:55;;;;;;;11.05;3.97;;;;;;;9.27;75.76;101731.44;5070852;28;20027;-80
2022/03/14 03:44:21;;;;;;;17.17;5.40;;;;;;;9.26;76.33;101739.56;5069763;28;20032;-80
2022/03/14 03:46:46;;;;;;;14.30;4.75;;;;;;;9.24;76.36;101744.16;5071428;28;20143;-80
2022/03/14 03:49:11;;;;;;;12.82;4.80;;;;;;;9.21;76.55;101752.34;5053100;28;20455;-80
2022/03/14 03:51:37;;;;;;;11.73;4.10;;;;;;;9.18;76.07;101757.88;5068885;28;20161;-80
2022/03/14 03:54:02;;;;;;;13.52;4.70;;;;;;;9.17;76.48;101761.53;5070963;28;20032;-80
2022/03/14 03:56:27;;;;;;;14.38;4.72;;;;;;;9.14;76.86;101761.69;5068952;28;20554;-80
2022/03/14 03:58:52;;;;;;;14.57;4.93;;;;;;;9.10;77.12;101767.19;5069618;28;20036;-80
2022/03/14 04:01:22;;;;;;;14.50;4.80;;;;;;;9.10;77.77;101769.88;5070989;28;20028;-80
2022/03/14 04:03:51;;;;;;;;;;;;;;;9.14;76.04;101777.78;5070591;28;20028;-80
2022/03/14 04:06:22;;;;;;;16.63;5.63;;;;;;;9.06;78.39;101771.00;5069182;28;19957;-80
2022/03/14 04:08:47;;;;;;;13.00;4.57;;;;;;;9.03;78.79;101781.84;5062303;28;20293;-80
2022/03/14 04:11:13;;;;;;;15.38;4.70;;;;;;;9.01;79.38;101782.91;5069221;28;20254;-80
2022/03/14 04:13:38;;;;;;;14.48;5.50;;;;;;;8.95;79.48;101794.81;5070429;28;20024;-80
2022/03/14 04:16:03;;;;;;;14.32;4.90;;;;;;;8.94;79.82;101798.44;5072374;28;20112;-80
2022/03/14 04:18:29;;;;;;;17.85;5.78;;;;;;;8.90;80.09;101796.84;5052773;28;20024;-80
2022/03/14 04:20:55;;;;;;;14.00;4.88;;;;;;;8.86;80.22;101801.50;5069485;28;20362;-80
2022/03/14 04:23:21;;;;;;;16.92;5.88;;;;;;;8.84;80.12;101808.75;5069823;28;20037;-80
2022/03/14 04:25:46;;;;;;;13.80;5.15;;;;;;;8.83;80.90;101811.50;5069076;28;20029;-80
2022/03/14 04:28:13;;;;;;;12.88;4.93;;;;;;;8.81;80.42;101810.72;5066537;28;20035;-80
2022/03/14 04:30:38;;;;;;;16.75;5.65;;;;;;;8.79;81.07;101826.03;5068852;28;20035;-80
2022/03/14 04:33:04;;;;;;;15.40;4.40;;;;;;;8.78;80.74;101829.66;5070758;28;20103;-80
2022/03/14 04:35:29;;;;;;;16.25;5.18;;;;;;;8.76;80.69;101823.50;5070161;28;20105;-80
2022/03/14 04:37:55;;;;;;;16.35;5.50;;;;;;;8.72;80.50;101831.66;5070233;28;20071;-80
2022/03/14 04:40:20;;;;;;;15.25;5.15;;;;;;;8.70;80.77;101827.34;5067679;28;20029;-80
2022/03/14 04:42:45;;;;;;;16.88;5.85;;;;;;;8.69;80.61;101839.88;5076005;28;20032;-80
2022/03/14 04:45:11;;;;;;;17.58;4.88;;;;;;;8.67;80.93;101836.41;5076168;28;20499;-80
2022/03/14 04:47:36;;;;;;;16.60;6.18;;;;;;;8.66;80.72;101834.66;5071223;28;20028;-80
2022/03/14 04:50:03;;;;;;;17.25;5.95;;;;;;;8.62;80.68;101841.13;5065823;28;20040;-80
2022/03/14 04:52:29;;;;;;;16.73;5.88;;;;;;;8.61;80.55;101838.50;5069622;28;20035;-80
2022/03/14 04:54:56;;;;;;;15.80;5.75;;;;;;;8.57;80.54;101841.34;5070505;28;20332;-80
2022/03/14 04:57:21;;;;;;;17.75;5.57;;;;;;;8.55;80.83;101850.38;5068349;28;20037;-80
2022/03/14 04:59:46;;;;;;;17.40;6.05;;;;;;;8.52;80.86;101850.53;5068514;28;20024;-80
2022/03/14 05:02:11;;;;;;;19.10;6.65;;;;;;;8.52;80.52;101855.91;5069534;28;20104;-80
2022/03/14 05:04:38;;;;;;;19.95;7.25;;;;;;;8.51;80.69;101859.53;5069484;28;20032;-80
2022/03/14 05:07:04;;;;;;;16.60;6.20;;;;;;;8.50;80.88;101879.22;5069681;28;20348;-80
2022/03/14 05:09:29;;;;;;;16.80;6.03;;;;;;;8.48;80.76;101886.50;5073934;28;20090;-80
2022/03/14 05:11:54;;;;;;;17.20;6.15;;;;;;;8.49;80.99;101885.53;5069037;28;20406;-80
2022/03/14 05:14:20;;;;;;;18.38;6.25;;;;;;;8.48;80.95;101894.53;5065699;28;20081;-80
2022/03/14 05:16:47;;;;;;;20.00;7.18;;;;;;;8.48;80.86;101894.53;5051255;28;20029;-80
2022/03/14 05:19:12;;;;;;;18.63;6.68;;;;;;;8.49;80.66;101893.56;5066948;28;20325;-80
2022/03/14 05:21:38;;;;;;;18.30;6.82;;;;;;;8.49;80.89;101909.63;5070463;28;20028;-80
2022/03/14 05:24:05;;;;;;;19.92;7.25;;;;;;;8.49;80.73;101909.63;5068416;28;20499;-80
2022/03/14 05:26:30;;;;;;;17.70;6.63;;;;;;;8.49;80.84;101906.97;5067641;28;20126;-80
2022/03/14 05:28:57;;;;;;;19.50;7.00;;;;;;;8.47;80.88;101903.50;5056495;28;20032;-80
2022/03/14 05:31:23;;;;;;;18.83;6.97;;;;;;;8.45;80.88;101908.94;5060601;28;20020;-80
2022/03/14 05:33:48;;;;;;;20.48;7.97;;;;;;;8.44;80.87;101915.22;5065575;28;20117;-80
2022/03/14 05:36:13;;;;;;;20.75;8.20;;;;;;;8.44;81.12;101915.22;5048659;28;20064;-80
2022/03/14 05:38:39;;;;;;;18.73;7.57;;;;;;;8.44;80.78;101928.63;5050177;28;20171;-80
2022/03/14 05:41:04;;;;;;;21.20;9.10;;;;;;;8.45;81.32;101941.06;5048550;28;20029;-80
2022/03/14 05:43:36;;;;;;;21.40;9.38;;;;;;;8.46;81.08;101925.88;5045861;28;20028;-80
2022/03/14 05:46:02;;;;;;;21.48;8.82;;;;;;;8.45;80.90;101935.72;5048812;28;20032;-80
2022/03/14 05:48:27;;;;;;;21.63;8.93;;;;;;;8.45;80.77;101951.78;5047778;28;20040;-80
2022/03/14 05:50:52;;;;;;;22.27;9.65;;;;;;;8.45;80.96;101942.88;5048407;28;20038;-80
2022/03/14 05:53:18;;;;;;;21.17;9.13;;;;;;;8.45;80.80;101953.59;5043806;28;20070;-80
2022/03/14 05:55:43;;;;;;;24.30;9.70;;;;;;;8.45;81.35;101950.91;5050895;28;20364;-80
2022/03/14 05:58:08;;;;;;;23.23;9.82;;;;;;;8.45;81.08;101956.25;5049171;28;20131;-80
2022/03/14 06:00:34;;;;;;;22.15;9.23;;;;;;;8.46;81.17;101974.09;5048877;28;20028;-80
2022/03/14 06:02:59;;;;;;;24.83;10.20;;;;;;;8.45;81.15;101972.34;5049512;28;20051;-80
2022/03/14 06:05:25;;;;;;;23.13;10.20;;;;;;;8.46;81.09;101979.44;5046657;28;20112;-80
2022/03/14 06:07:50;;;;;;;25.00;10.77;;;;;;;8.47;81.10;101981.19;5048219;28;20080;-80
2022/03/14 06:10:16;;;;;;;23.50;10.52;;;;;;;8.47;81.27;101984.72;5045246;28;20087;-80
2022/03/14 06:12:42;;;;;;;24.02;10.38;;;;;;;8.48;81.11;101989.16;5045883;28;20424;-80
2022/03/14 06:15:10;;;;;;;21.98;10.93;;;;;;;8.50;81.46;101995.31;5042706;28;20067;-80
2022/03/14 06:17:36;;;;;;;22.50;10.80;;;;;;;8.51;81.25;101993.50;5049115;28;20399;-80
2022/03/14 06:20:01;;;;;;;24.60;10.32;;;;;;;8.51;80.90;101994.38;5047377;28;20047;-79
2022/03/14 06:22:27;;;;;;;23.48;10.32;;;;;;;8.51;80.96;102001.56;5045812;28;20183;-80
2022/03/14 06:24:52;;;;;;;24.75;11.20;;;;;;;8.51;81.05;102005.09;5045715;28;20052;-80
2022/03/14 06:27:22;;;;;;;24.65;11.60;;;;;;;8.52;81.03;102008.63;5046629;28;20028;-80
2022/03/14 06:29:48;;;;;;;24.13;10.50;;;;;;;8.52;80.97;102016.66;5047061;28;20032;-80
2022/03/14 06:32:15;;;;;;;23.05;11.00;;;;;;;8.51;80.99;102021.16;5047446;28;20039;-80
2022/03/14 06:34:41;;;;;;;29.42;10.85;;;;;;;8.52;81.08;102022.03;5045984;28;20496;-80
2022/03/14 06:37:07;;;;;;;24.10;11.07;;;;;;;8.53;81.23;102026.44;5048563;28;20020;-80
2022/03/14 06:39:35;;;;;;;24.52;11.40;;;;;;;8.51;81.36;102031.03;5068376;28;20360;-80
2022/03/14 06:42:01;;;;;;;24.98;12.45;;;;;;;8.52;81.67;102030.06;5068151;28;20027;-80
2022/03/14 06:44:28;;;;;;;24.85;12.55;;;;;;;8.52;81.55;102035.41;5064890;28;20036;-80
2022/03/14 06:46:55;;;;;;;25.88;11.57;;;;;;;8.52;81.23;102039.00;5065107;28;20032;-80
2022/03/14 06:49:21;;;;;;;25.48;12.63;;;;;;;8.51;81.36;102037.25;5064753;28;20020;-80
2022/03/14 06:51:47;;;;;;;27.92;12.27;;;;;;;8.52;81.19;102041.66;5068000;28;20172;-80
2022/03/14 06:54:12;;;;;;;24.15;11.65;;;;;;;8.51;81.14;102047.97;5067019;28;20024;-80
2022/03/14 06:56:38;;;;;;;25.25;12.65;;;;;;;8.51;81.13;102049.78;5068248;28;20024;-80
2022/03/14 06:59:03;;;;;;;26.15;11.98;;;;;;;8.52;80.98;102054.19;5066147;28;20204;-80
2022/03/14 07:01:30;;;;;;;23.55;10.95;;;;;;;8.52;81.42;102056.84;5041192;28;20442;-80
2022/03/14 07:03:55;;;;;;;26.50;12.45;;;;;;;8.54;81.11;102061.22;5045491;28;20024;-81
2022/03/14 07:06:21;;;;;;;27.60;12.07;;;;;;;8.56;81.23;102063.81;5044100;28;20029;-80
2022/03/14 07:08:46;;;;;;;24.98;12.35;;;;;;;8.58;81.28;102070.00;5046887;28;20127;-80
2022/03/14 07:11:11;;;;;;;25.77;12.10;;;;;;;8.60;81.44;102062.75;5043470;28;20052;-79
2022/03/14 07:13:37;;;;;;;25.13;12.48;;;;;;;8.63;81.42;102069.78;5034895;28;20331;-80
2022/03/14 07:16:02;;;;;;;23.23;11.70;;;;;;;8.65;80.79;102076.78;5043907;28;20557;-80
2022/03/14 07:18:30;;;;;;;27.45;12.57;;;;;;;8.66;80.80;102077.69;5046169;28;20047;-80
2022/03/14 07:20:55;;;;;;;24.55;12.48;;;;;;;8.66;80.61;102081.22;5046140;28;20033;-80
2022/03/14 07:23:20;;;;;;;24.98;12.23;;;;;;;8.69;80.82;102078.41;5052019;28;20063;-80
2022/03/14 07:25:46;;;;;;;26.23;12.55;;;;;;;8.70;80.24;102077.47;5061749;28;20143;-80
2022/03/14 07:28:12;;;;;;;25.83;12.30;;;;;;;8.72;80.12;102078.25;5052225;28;20487;-80
2022/03/14 07:30:40;;;;;;;25.85;12.52;;;;;;;8.73;80.21;102089.88;5039650;28;20159;-80
2022/03/14 07:33:06;;;;;;;25.85;12.35;;;;;;;8.77;79.97;102090.59;5051869;28;20492;-80
2022/03/14 07:35:31;;;;;;;25.30;12.43;;;;;;;8.77;79.55;102083.44;5077534;28;20039;-80
2022/03/14 07:37:56;;;;;;;25.77;12.32;;;;;;;8.80;79.93;102090.44;5065555;28;20021;-81
2022/03/14 07:40:23;;;;;;;24.85;12.25;;;;;;;8.81;79.77;102084.16;5066074;28;20494;-79
2022/03/14 07:42:50;;;;;;;30.17;12.43;;;;;;;8.83;79.70;102088.50;5067112;28;20055;-80
2022/03/14 07:45:21;;;;;;;24.95;11.85;;;;;;;8.87;79.46;102092.78;5039216;28;20032;-80
2022/03/14 07:47:46;;;;;;;24.63;12.05;;;;;;;8.91;79.58;102091.69;5044844;28;20032;-80
2022/03/14 07:50:14;;;;;;;24.48;10.98;;;;;;;8.95;79.43;102097.78;5047670;28;20041;-80
2022/03/14 07:52:39;;;;;;;25.48;12.85;;;;;;;9.00;79.27;102108.28;5039608;28;20037;-80
2022/03/14 07:55:07;;;;;;;25.08;12.77;;;;;;;9.02;79.30;102111.75;5043930;28;20042;-80
2022/03/14 07:57:33;;;;;;;24.88;11.52;;;;;;;9.07;79.30;102115.13;5041087;28;20029;-80
2022/03/14 08:00:04;;;;;;;27.75;13.55;;;;;;;9.09;79.32;102113.22;5047677;28;20408;-80
2022/03/14 08:02:29;;;;;;;26.67;12.23;;;;;;;9.12;78.61;102117.56;5046228;28;20021;-79
2022/03/14 08:04:55;;;;;;;26.45;12.95;;;;;;;9.13;78.75;102120.19;5044753;28;20492;-81
2022/03/14 08:07:20;;;;;;;24.80;12.18;;;;;;;9.13;78.43;102122.88;5043653;28;20040;-80
2022/03/14 08:09:48;;;;;;;26.00;13.48;;;;;;;9.15;78.50;102133.53;5046906;28;20052;-80
2022/03/14 08:12:13;;;;;;;29.33;13.63;;;;;;;9.16;78.36;102135.28;5044944;28;20172;-80
2022/03/14 08:14:38;;;;;;;28.00;13.88;;;;;;;9.16;78.61;102132.59;5044698;28;20636;-79
2022/03/14 08:17:04;;;;;;;25.85;12.63;;;;;;;9.17;78.41;102134.34;5045683;28;20037;-81
2022/03/14 08:19:29;;;;;;;28.50;12.75;;;;;;;9.18;78.15;102149.47;5045333;28;20033;-80
2022/03/14 08:21:56;;;;;;;27.17;13.25;;;;;;;9.18;78.05;102144.09;5043260;28;20056;-80
2022/03/14 08:24:22;;;;;;;26.33;12.77;;;;;;;9.17;78.12;102153.13;5043737;28;20063;-79
2022/03/14 08:26:48;;;;;;;26.42;11.95;;;;;;;9.18;78.38;102155.72;5048541;28;20056;-80
2022/03/14 08:29:14;;;;;;;27.08;12.05;;;;;;;9.21;78.25;102155.56;5048164;28;20101;-80
2022/03/14 08:31:39;;;;;;;25.08;12.52;;;;;;;9.23;78.20;102159.03;5049790;28;20038;-80
2022/03/14 08:34:06;;;;;;;24.73;13.27;;;;;;;9.26;78.30;102160.72;5054292;28;20021;-80
2022/03/14 08:36:33;;;;;;;29.63;12.50;;;;;;;9.27;78.24;102166.00;5048221;28;20543;-80
2022/03/14 08:38:58;;;;;;;27.48;12.23;;;;;;;9.30;77.89;102173.06;5052928;28;20025;-80
2022/03/14 08:41:23;;;;;;;25.77;12.10;;;;;;;9.34;78.14;102177.34;5038707;28;20289;-80
2022/03/14 08:43:49;;;;;;;25.40;11.70;;;;;;;9.37;77.68;102176.31;5062434;28;20352;-80
2022/03/14 08:46:17;;;;;;;26.35;11.75;;;;;;;9.40;77.45;102177.03;5069108;28;20036;-80
2022/03/14 08:48:42;;;;;;;26.40;10.95;;;;;;;9.43;76.97;102186.78;5071305;28;20464;-80
2022/03/14 08:51:08;;;;;;;24.98;11.50;;;;;;;9.45;76.67;102190.25;5070124;28;20021;-80
2022/03/14 08:53:34;;;;;;;27.90;12.10;;;;;;;9.47;76.86;102198.22;5070679;28;20020;-80
2022/03/14 08:56:03;;;;;;;23.70;11.32;;;;;;;9.50;76.71;102203.44;5048436;28;20366;-80
2022/03/14 08:58:31;;;;;;;23.43;10.63;;;;;;;9.50;76.04;102208.81;5048073;28;20045;-80
2022/03/14 09:00:59;;;;;;;24.80;11.50;;;;;;;9.51;76.53;102210.56;5049133;28;20039;-80
2022/03/14 09:03:26;;;;;;;24.00;11.27;;;;;;;9.52;76.67;102220.38;5047482;28;20036;-80
2022/03/14 09:05:53;;;;;;;22.65;10.85;;;;;;;9.54;76.53;102216.63;5045626;28;21466;-80
2022/03/14 09:08:19;;;;;;;23.35;10.35;;;;;;;9.60;76.47;102226.22;5046803;28;20111;-80
2022/03/14 09:10:46;;;;;;;22.83;11.00;;;;;;;9.67;76.21;102222.31;5051509;28;20140;-80
2022/03/14 09:13:11;;;;;;;23.88;10.48;;;;;;;9.75;76.09;102227.31;5060982;28;20082;-80
2022/03/14 09:15:37;;;;;;;23.60;10.18;;;;;;;9.82;75.82;102231.44;5059681;28;20024;-80
2022/03/14 09:18:03;;;;;;;24.10;10.35;;;;;;;9.89;75.55;102237.41;5070086;28;20081;-80
2022/03/14 09:20:30;;;;;;;29.40;11.82;;;;;;;9.94;75.18;102244.28;5067293;28;20025;-80
2022/03/14 09:22:56;;;;;;;26.52;11.25;;;;;;;10.00;75.38;102250.28;5065515;28;20017;-80
2022/03/14 09:25:22;;;;;;;23.42;9.80;;;;;;;10.02;74.65;102249.28;5071365;28;20041;-80
2022/03/14 09:27:49;;;;;;;27.30;11.50;;;;;;;10.07;74.69;102238.31;5051884;28;20037;-80
2022/03/14 09:30:16;;;;;;;24.30;10.75;;;;;;;10.15;75.09;102244.19;5048349;28;20382;-80
2022/03/14 09:32:42;;;;;;;21.98;9.32;;;;;;;10.22;73.81;102244.72;5068632;28;20115;-80
2022/03/14 09:35:09;;;;;;;22.67;10.65;;;;;;;10.29;73.89;102251.56;5070830;28;20115;-80
2022/03/14 09:37:39;;;;;;;22.67;8.65;;;;;;;10.33;72.77;102255.84;5069853;28;20021;-80
2022/03/14 09:40:10;;;;;;;26.73;9.60;;;;;;;10.36;71.86;102258.41;5070086;28;20452;-80
2022/03/14 09:42:50;;;;;;;20.25;8.50;;;;;;;10.41;72.62;102260.84;5068392;28;20021;-79
2022/03/14 09:45:16;;;;;;;22.17;9.13;;;;;;;10.46;71.66;102272.25;5065418;28;20447;-81
2022/03/14 09:47:44;;;;;;;24.55;9.27;;;;;;;10.48;72.04;102276.63;5055805;28;20036;-80
2022/03/14 09:50:13;;;;;;;27.88;10.98;;;;;;;10.49;71.61;102275.66;5068461;28;20460;-81
2022/03/14 09:52:41;;;;;;;22.33;9.05;;;;;;;10.56;71.92;102286.13;5067701;28;20021;-81
2022/03/14 09:55:08;;;;;;;23.30;9.13;;;;;;;10.58;71.89;102295.81;5069564;28;20032;-81
2022/03/14 09:57:35;;;;;;;23.40;8.90;;;;;;;10.61;70.78;102300.19;5069892;28;20433;-81
2022/03/14 10:00:02;;;;;;;26.25;9.77;;;;;;;10.62;71.56;102302.78;5069915;28;20039;-81
2022/03/14 10:02:28;;;;;;;21.60;9.50;;;;;;;10.63;71.94;102309.91;5068165;28;20028;-82
2022/03/14 10:04:54;;;;;;;23.77;9.98;;;;;;;10.63;71.05;102322.47;5067208;28;20028;-80
2022/03/14 10:07:21;;;;;;;25.70;10.10;;;;;;;10.65;71.43;102313.38;5067989;28;20366;-81
2022/03/14 10:09:47;;;;;;;22.80;9.52;;;;;;;10.71;71.06;102322.09;5067527;28;20056;-80
2022/03/14 10:12:15;;;;;;;22.75;9.68;;;;;;;10.77;71.06;102324.47;5066662;28;20340;-80
2022/03/14 10:14:40;;;;;;;19.48;8.02;;;;;;;10.83;71.12;102316.09;5069598;28;20111;-80
2022/03/14 10:17:06;;;;;;;17.38;6.38;;;;;;;10.88;68.35;102307.78;5067964;28;20162;-78
2022/03/14 10:19:34;;;;;;;19.23;7.32;;;;;;;10.90;68.41;102313.97;5067522;28;20020;-81
2022/03/14 10:22:16;;;;;;;18.83;6.93;;;;;;;10.95;69.42;102326.25;5068257;28;20059;-80
2022/03/14 10:24:44;;;;;;;23.67;8.32;;;;;;;10.98;69.88;102327.88;5068340;28;20033;-81
2022/03/14 10:27:11;;;;;;;24.27;7.95;;;;;;;10.97;68.04;102331.53;5066471;28;20023;-81
2022/03/14 10:29:37;;;;;;;22.23;9.13;;;;;;;10.98;68.05;102335.94;5068951;28;20025;-81
2022/03/14 10:32:05;;;;;;;21.75;9.38;;;;;;;11.01;68.53;102343.88;5068896;28;20081;-80
2022/03/14 10:34:30;;;;;;;22.27;9.48;;;;;;;11.03;68.24;102344.69;5055739;28;20025;-81
2022/03/14 10:36:57;;;;;;;26.65;10.68;;;;;;;11.06;67.94;102340.97;5053888;28;20036;-81
2022/03/14 10:39:25;;;;;;;22.88;10.63;;;;;;;11.06;67.45;102346.34;5069746;28;20043;-81
2022/03/14 10:42:10;;;;;;;22.67;9.82;;;;;;;11.07;68.02;102351.66;5068313;28;20096;-81
2022/03/14 10:44:41;;;;;;;22.02;10.45;;;;;;;11.05;67.50;102352.66;5069138;28;20070;-80
2022/03/14 10:47:09;;;;;;;22.70;9.95;;;;;;;11.04;67.73;102351.81;5069299;28;20428;-80
2022/03/14 10:49:37;;;;;;;22.40;9.45;;;;;;;11.07;68.07;102351.66;5066603;28;20024;-80
2022/03/14 10:52:06;;;;;;;20.70;8.23;;;;;;;11.09;67.95;102360.50;5068325;28;20132;-80
2022/03/14 10:54:34;;;;;;;21.25;7.82;;;;;;;11.11;67.76;102369.38;5068696;28;20028;-80
2022/03/14 10:57:00;;;;;;;24.75;8.75;;;;;;;11.12;67.73;102360.34;5068053;28;20112;-81
2022/03/14 10:59:36;;;;;;;24.27;8.45;;;;;;;11.16;67.61;102366.44;5067716;28;20024;-82
2022/03/14 11:02:03;;;;;;;20.00;7.10;;;;;;;11.21;67.24;102374.28;5065348;28;20101;-81
2022/03/14 11:04:39;;;;;;;20.30;7.35;;;;;;;11.24;67.11;102371.44;5049018;28;20028;-81
2022/03/14 11:07:04;;;;;;;22.90;6.93;;;;;;;11.25;66.37;102370.47;5068357;28;20034;-80
2022/03/14 11:09:39;;;;;;;22.40;7.55;;;;;;;11.28;66.89;102375.72;5065979;28;20049;-81
2022/03/14 11:12:09;;;;;;;19.77;6.90;;;;;;;11.31;66.28;102378.22;5064533;28;20485;-80
2022/03/14 11:14:35;;;;;;;23.85;7.60;;;;;;;11.32;65.58;102374.59;5065612;28;20406;-80
2022/03/14 11:17:15;;;;;;;22.25;7.47;;;;;;;11.40;66.44;102377.75;5068746;28;20036;-81